Overview Statistics Trail Chart Weather Telemetry Raw packets
 

This is the latest recevied weather packets stored in our database for station/object R2AJV-13. If no packets are shown the sender has not sent any weather packets the latest 10 day(s).

<< 11 12 13 14 15 16 17 >>
Time Temp. Humidity Pressure Rain* Wind** Luminosity Snow
1788183057 21.67° C 73% 1003 hPa 0 mm - - -
1788182146 21.67° C 72% 1003.1 hPa 0 mm - - -
1788181264 22.78° C 69% 1003 hPa 0 mm - - -
1788180358 23.33° C 69% 1003 hPa 0 mm - - -
1788179448 22.78° C 70% 1003.1 hPa 0 mm - - -
1788178537 22.78° C 71% 1003.2 hPa 0 mm - - -
1788177627 21.67° C 74% 1003.1 hPa 0 mm - - -
1788176721 22.22° C 72% 1003.2 hPa 0 mm - - -
1788175871 21.67° C 75% 1003.3 hPa 0 mm - - -
1788174960 21.67° C 73% 1003.2 hPa 0 mm - - -
1788174062 22.22° C 71% 1003.3 hPa 0 mm - - -
1788173139 21.67° C 73% 1003.3 hPa 0 mm - - -
1788172234 21.11° C 77% 1003.3 hPa 0 mm - - -
1788171324 20.56° C 79% 1003.3 hPa 0 mm - - -
1788170473 20.56° C 77% 1003.3 hPa 0 mm - - -
1788169563 20.56° C 80% 1003.3 hPa 0 mm - - -
1788168658 20° C 81% 1003.3 hPa 0 mm - - -
1788167747 19.44° C 82% 1003.5 hPa 0 mm - - -
1788166834 18.89° C 84% 1003.6 hPa 0 mm - - -
1788165923 18.89° C 84% 1003.5 hPa 0 mm - - -
1788165049 18.33° C 85% 1003.6 hPa 0 mm - - -
1788163227 17.22° C 87% 1003.7 hPa 0 mm - - -
1788162323 17.22° C 89% 1003.7 hPa 0 mm - - -
1788161472 17.78° C 89% 1003.9 hPa 0 mm - - -
1788160560 16.67° C 90% 1003.8 hPa 0 mm - - -

* Rain latest hour (hover to see other rain measurements)
** Current wind speed in m/s (hover to see current wind gust speed)